sensor_id;sensor_type;location;lat;lon;timestamp;P1;durP1;ratioP1;P2;durP2;ratioP2
64502;SDS011;50971;51.940;21.258;2024-01-30T00:08:57;16.40;;;8.10;;
64502;SDS011;50971;51.940;21.258;2024-01-30T00:18:58;17.80;;;8.90;;
64502;SDS011;50971;51.940;21.258;2024-01-30T00:29:00;13.50;;;7.30;;
64502;SDS011;50971;51.940;21.258;2024-01-30T00:39:02;19.70;;;8.40;;
64502;SDS011;50971;51.940;21.258;2024-01-30T00:49:07;17.60;;;10.10;;
64502;SDS011;50971;51.940;21.258;2024-01-30T00:59:09;8.30;;;6.10;;
64502;SDS011;50971;51.940;21.258;2024-01-30T01:09:11;12.90;;;5.00;;
64502;SDS011;50971;51.940;21.258;2024-01-30T01:19:13;17.20;;;8.20;;
64502;SDS011;50971;51.940;21.258;2024-01-30T01:29:15;14.40;;;7.30;;
64502;SDS011;50971;51.940;21.258;2024-01-30T01:39:17;17.70;;;8.70;;
64502;SDS011;50971;51.940;21.258;2024-01-30T01:49:19;17.10;;;8.40;;
64502;SDS011;50971;51.940;21.258;2024-01-30T01:59:22;11.70;;;7.40;;
64502;SDS011;50971;51.940;21.258;2024-01-30T02:09:25;14.80;;;7.40;;
64502;SDS011;50971;51.940;21.258;2024-01-30T02:19:27;12.80;;;6.70;;
64502;SDS011;50971;51.940;21.258;2024-01-30T02:29:29;12.00;;;7.10;;
64502;SDS011;50971;51.940;21.258;2024-01-30T02:49:32;14.80;;;7.70;;
64502;SDS011;50971;51.940;21.258;2024-01-30T02:59:34;16.90;;;8.00;;
64502;SDS011;50971;51.940;21.258;2024-01-30T03:09:37;18.60;;;8.90;;
64502;SDS011;50971;51.940;21.258;2024-01-30T03:19:39;12.40;;;7.30;;
64502;SDS011;50971;51.940;21.258;2024-01-30T03:29:41;15.10;;;7.80;;
64502;SDS011;50971;51.940;21.258;2024-01-30T03:49:44;14.10;;;7.10;;
64502;SDS011;50971;51.940;21.258;2024-01-30T03:59:46;12.40;;;6.80;;
64502;SDS011;50971;51.940;21.258;2024-01-30T04:09:48;14.30;;;9.20;;
64502;SDS011;50971;51.940;21.258;2024-01-30T04:29:52;15.80;;;7.90;;
64502;SDS011;50971;51.940;21.258;2024-01-30T04:49:55;14.20;;;7.40;;
64502;SDS011;50971;51.940;21.258;2024-01-30T04:59:57;16.10;;;6.50;;
64502;SDS011;50971;51.940;21.258;2024-01-30T05:20:05;13.10;;;7.60;;
64502;SDS011;50971;51.940;21.258;2024-01-30T05:30:08;15.70;;;8.80;;
64502;SDS011;50971;51.940;21.258;2024-01-30T05:40:10;21.90;;;8.20;;
64502;SDS011;50971;51.940;21.258;2024-01-30T05:50:12;15.60;;;8.40;;
64502;SDS011;50971;51.940;21.258;2024-01-30T06:00:14;19.50;;;9.70;;
64502;SDS011;50971;51.940;21.258;2024-01-30T06:10:16;18.90;;;9.90;;
64502;SDS011;50971;51.940;21.258;2024-01-30T06:20:19;17.70;;;8.30;;
64502;SDS011;50971;51.940;21.258;2024-01-30T06:30:21;19.50;;;8.80;;
64502;SDS011;50971;51.940;21.258;2024-01-30T06:40:23;19.70;;;9.20;;
64502;SDS011;50971;51.940;21.258;2024-01-30T06:50:25;20.70;;;9.60;;
64502;SDS011;50971;51.940;21.258;2024-01-30T07:00:27;14.20;;;7.40;;
64502;SDS011;50971;51.940;21.258;2024-01-30T07:10:29;21.00;;;9.90;;
64502;SDS011;50971;51.940;21.258;2024-01-30T07:20:33;12.60;;;7.00;;
64502;SDS011;50971;51.940;21.258;2024-01-30T07:30:35;22.60;;;10.50;;
64502;SDS011;50971;51.940;21.258;2024-01-30T07:40:37;25.80;;;11.60;;
64502;SDS011;50971;51.940;21.258;2024-01-30T07:50:39;17.80;;;7.30;;
64502;SDS011;50971;51.940;21.258;2024-01-30T08:00:41;19.20;;;10.00;;
64502;SDS011;50971;51.940;21.258;2024-01-30T08:10:43;19.60;;;8.80;;
64502;SDS011;50971;51.940;21.258;2024-01-30T08:20:45;15.30;;;7.60;;
64502;SDS011;50971;51.940;21.258;2024-01-30T08:30:47;18.30;;;9.10;;
64502;SDS011;50971;51.940;21.258;2024-01-30T08:40:49;20.90;;;8.60;;
64502;SDS011;50971;51.940;21.258;2024-01-30T08:50:51;19.20;;;8.90;;
64502;SDS011;50971;51.940;21.258;2024-01-30T09:00:53;16.20;;;7.80;;
64502;SDS011;50971;51.940;21.258;2024-01-30T09:10:55;18.20;;;9.20;;
64502;SDS011;50971;51.940;21.258;2024-01-30T09:20:57;15.60;;;8.10;;
64502;SDS011;50971;51.940;21.258;2024-01-30T09:30:58;18.90;;;8.50;;
64502;SDS011;50971;51.940;21.258;2024-01-30T09:41:02;17.70;;;7.90;;
64502;SDS011;50971;51.940;21.258;2024-01-30T09:51:10;16.00;;;7.90;;
64502;SDS011;50971;51.940;21.258;2024-01-30T10:01:13;15.80;;;7.20;;
64502;SDS011;50971;51.940;21.258;2024-01-30T10:11:20;10.40;;;5.20;;
64502;SDS011;50971;51.940;21.258;2024-01-30T10:21:23;12.10;;;6.90;;
64502;SDS011;50971;51.940;21.258;2024-01-30T10:31:25;18.50;;;7.60;;
64502;SDS011;50971;51.940;21.258;2024-01-30T10:41:27;12.60;;;7.50;;
64502;SDS011;50971;51.940;21.258;2024-01-30T10:51:32;14.90;;;7.00;;
64502;SDS011;50971;51.940;21.258;2024-01-30T11:01:35;12.30;;;7.10;;
64502;SDS011;50971;51.940;21.258;2024-01-30T11:11:50;12.00;;;6.00;;
64502;SDS011;50971;51.940;21.258;2024-01-30T11:21:53;10.60;;;5.70;;
64502;SDS011;50971;51.940;21.258;2024-01-30T11:31:57;15.90;;;6.70;;
64502;SDS011;50971;51.940;21.258;2024-01-30T11:42:00;10.90;;;5.30;;
64502;SDS011;50971;51.940;21.258;2024-01-30T11:52:02;9.70;;;5.40;;
64502;SDS011;50971;51.940;21.258;2024-01-30T12:02:05;9.60;;;5.60;;
64502;SDS011;50971;51.940;21.258;2024-01-30T12:12:07;13.60;;;6.10;;
64502;SDS011;50971;51.940;21.258;2024-01-30T12:22:13;10.00;;;5.90;;
64502;SDS011;50971;51.940;21.258;2024-01-30T12:32:15;10.10;;;5.40;;
64502;SDS011;50971;51.940;21.258;2024-01-30T12:42:18;12.00;;;5.80;;
64502;SDS011;50971;51.940;21.258;2024-01-30T12:52:21;11.20;;;5.30;;
64502;SDS011;50971;51.940;21.258;2024-01-30T13:02:24;8.60;;;5.20;;
64502;SDS011;50971;51.940;21.258;2024-01-30T13:12:26;10.20;;;4.90;;
64502;SDS011;50971;51.940;21.258;2024-01-30T13:22:27;9.60;;;4.90;;
64502;SDS011;50971;51.940;21.258;2024-01-30T13:32:29;12.50;;;5.60;;
64502;SDS011;50971;51.940;21.258;2024-01-30T13:42:31;10.70;;;5.90;;
64502;SDS011;50971;51.940;21.258;2024-01-30T13:52:33;9.20;;;4.80;;
64502;SDS011;50971;51.940;21.258;2024-01-30T14:02:45;10.30;;;4.40;;
64502;SDS011;50971;51.940;21.258;2024-01-30T14:12:47;8.60;;;5.00;;
64502;SDS011;50971;51.940;21.258;2024-01-30T14:22:51;9.90;;;5.30;;
64502;SDS011;50971;51.940;21.258;2024-01-30T14:32:55;7.10;;;4.40;;
64502;SDS011;50971;51.940;21.258;2024-01-30T14:42:57;8.80;;;4.80;;
64502;SDS011;50971;51.940;21.258;2024-01-30T14:53:00;10.60;;;5.50;;
64502;SDS011;50971;51.940;21.258;2024-01-30T15:03:02;10.10;;;5.20;;
64502;SDS011;50971;51.940;21.258;2024-01-30T15:13:04;8.00;;;4.00;;
64502;SDS011;50971;51.940;21.258;2024-01-30T15:23:06;7.90;;;3.80;;
64502;SDS011;50971;51.940;21.258;2024-01-30T15:33:08;8.00;;;4.30;;
64502;SDS011;50971;51.940;21.258;2024-01-30T15:43:09;7.80;;;3.70;;
64502;SDS011;50971;51.940;21.258;2024-01-30T15:53:11;7.50;;;4.40;;
64502;SDS011;50971;51.940;21.258;2024-01-30T16:03:13;15.70;;;5.80;;
64502;SDS011;50971;51.940;21.258;2024-01-30T16:13:15;7.90;;;4.40;;
64502;SDS011;50971;51.940;21.258;2024-01-30T16:23:16;9.70;;;5.40;;
64502;SDS011;50971;51.940;21.258;2024-01-30T16:33:18;9.60;;;4.90;;
64502;SDS011;50971;51.940;21.258;2024-01-30T16:43:20;12.20;;;5.90;;
64502;SDS011;50971;51.940;21.258;2024-01-30T16:53:22;13.60;;;7.40;;
64502;SDS011;50971;51.940;21.258;2024-01-30T17:03:24;12.50;;;6.90;;
64502;SDS011;50971;51.940;21.258;2024-01-30T17:13:25;13.50;;;6.50;;
64502;SDS011;50971;51.940;21.258;2024-01-30T17:23:28;15.30;;;7.30;;
64502;SDS011;50971;51.940;21.258;2024-01-30T17:33:32;12.70;;;6.40;;
64502;SDS011;50971;51.940;21.258;2024-01-30T17:43:34;15.60;;;8.20;;
64502;SDS011;50971;51.940;21.258;2024-01-30T17:53:36;19.90;;;7.60;;
64502;SDS011;50971;51.940;21.258;2024-01-30T18:03:39;11.90;;;5.80;;
64502;SDS011;50971;51.940;21.258;2024-01-30T18:13:41;17.50;;;8.00;;
64502;SDS011;50971;51.940;21.258;2024-01-30T18:23:44;14.60;;;8.00;;
64502;SDS011;50971;51.940;21.258;2024-01-30T18:33:45;23.00;;;10.70;;
64502;SDS011;50971;51.940;21.258;2024-01-30T18:43:52;27.20;;;12.20;;
64502;SDS011;50971;51.940;21.258;2024-01-30T18:53:54;23.40;;;11.20;;
64502;SDS011;50971;51.940;21.258;2024-01-30T19:03:55;25.50;;;12.30;;
64502;SDS011;50971;51.940;21.258;2024-01-30T19:13:58;18.10;;;10.20;;
64502;SDS011;50971;51.940;21.258;2024-01-30T19:23:59;15.60;;;8.70;;
64502;SDS011;50971;51.940;21.258;2024-01-30T19:34:02;25.60;;;11.90;;
64502;SDS011;50971;51.940;21.258;2024-01-30T19:44:06;25.60;;;11.20;;
64502;SDS011;50971;51.940;21.258;2024-01-30T19:54:11;28.50;;;12.70;;
64502;SDS011;50971;51.940;21.258;2024-01-30T20:04:16;24.00;;;11.80;;
64502;SDS011;50971;51.940;21.258;2024-01-30T20:14:18;31.60;;;11.90;;
64502;SDS011;50971;51.940;21.258;2024-01-30T20:24:19;25.00;;;11.90;;
64502;SDS011;50971;51.940;21.258;2024-01-30T20:34:22;22.50;;;11.60;;
64502;SDS011;50971;51.940;21.258;2024-01-30T20:44:24;24.70;;;11.90;;
64502;SDS011;50971;51.940;21.258;2024-01-30T20:54:25;43.00;;;17.10;;
64502;SDS011;50971;51.940;21.258;2024-01-30T21:04:27;34.50;;;14.10;;
64502;SDS011;50971;51.940;21.258;2024-01-30T21:14:29;28.00;;;14.00;;
64502;SDS011;50971;51.940;21.258;2024-01-30T21:24:31;23.90;;;11.80;;
64502;SDS011;50971;51.940;21.258;2024-01-30T21:34:32;22.10;;;10.60;;
64502;SDS011;50971;51.940;21.258;2024-01-30T21:44:34;27.70;;;13.00;;
64502;SDS011;50971;51.940;21.258;2024-01-30T21:54:36;27.80;;;14.00;;
64502;SDS011;50971;51.940;21.258;2024-01-30T22:04:39;18.30;;;9.90;;
64502;SDS011;50971;51.940;21.258;2024-01-30T22:14:44;21.00;;;9.90;;
64502;SDS011;50971;51.940;21.258;2024-01-30T22:24:46;21.80;;;10.30;;
64502;SDS011;50971;51.940;21.258;2024-01-30T22:34:48;26.60;;;12.30;;
64502;SDS011;50971;51.940;21.258;2024-01-30T22:44:49;19.20;;;11.60;;
64502;SDS011;50971;51.940;21.258;2024-01-30T22:54:51;25.90;;;11.90;;
64502;SDS011;50971;51.940;21.258;2024-01-30T23:04:53;22.00;;;9.50;;
